createdAt,value
2023-05-02T00:01:59.661Z,20.33
2023-05-02T00:06:12.392Z,18.40
2023-05-02T00:10:24.729Z,15.25
2023-05-02T00:14:37.067Z,16.63
2023-05-02T00:18:49.616Z,15.68
2023-05-02T00:23:02.039Z,19.95
2023-05-02T00:27:14.901Z,16.98
2023-05-02T00:31:27.615Z,15.05
2023-05-02T00:35:40.398Z,16.80
2023-05-02T00:39:52.737Z,17.88
2023-05-02T00:44:05.344Z,18.38
2023-05-02T00:48:20.762Z,18.88
2023-05-02T00:52:33.849Z,16.40
2023-05-02T00:56:46.969Z,17.52
2023-05-02T01:01:10.914Z,14.40
2023-05-02T01:05:33.374Z,16.23
2023-05-02T01:10:08.432Z,19.55
2023-05-02T01:14:22.746Z,16.10
2023-05-02T01:18:39.703Z,15.70
2023-05-02T01:22:53.235Z,18.40
2023-05-02T01:27:30.426Z,16.23
2023-05-02T01:31:46.799Z,21.48
2023-05-02T01:36:01.950Z,18.95
2023-05-02T01:40:18.646Z,15.38
2023-05-02T01:44:36.330Z,18.55
2023-05-02T01:48:52.378Z,20.25
2023-05-02T01:53:05.427Z,17.55
2023-05-02T01:57:19.630Z,20.25
2023-05-02T02:01:32.490Z,22.50
2023-05-02T02:05:46.823Z,21.10
2023-05-02T02:10:00.276Z,20.33
2023-05-02T02:14:37.090Z,18.58
2023-05-02T02:18:49.616Z,21.13
2023-05-02T02:23:05.828Z,22.63
2023-05-02T02:27:20.644Z,23.20
2023-05-02T02:31:34.596Z,25.20
2023-05-02T02:36:29.721Z,22.20
2023-05-02T02:40:47.700Z,21.00
2023-05-02T02:45:30.375Z,22.92
2023-05-02T02:49:56.784Z,26.10
2023-05-02T02:54:28.722Z,19.60
2023-05-02T02:58:54.718Z,27.23
2023-05-02T03:03:08.607Z,23.70
2023-05-02T03:07:21.279Z,20.42
2023-05-02T03:11:34.702Z,20.55
2023-05-02T03:15:54.249Z,19.27
2023-05-02T03:20:13.722Z,18.98
2023-05-02T03:24:27.895Z,22.92
2023-05-02T03:28:41.619Z,25.17
2023-05-02T03:32:54.340Z,25.77
2023-05-02T03:37:07.422Z,24.02
2023-05-02T03:41:21.236Z,24.80
2023-05-02T03:45:40.371Z,23.92
2023-05-02T03:49:53.512Z,25.70
2023-05-02T03:54:07.798Z,22.27
2023-05-02T03:58:21.286Z,18.35
2023-05-02T04:02:33.979Z,22.25
2023-05-02T04:06:47.050Z,25.85
2023-05-02T04:11:00.072Z,23.70
2023-05-02T04:15:12.832Z,24.80
2023-05-02T04:19:25.629Z,25.77
2023-05-02T04:23:38.269Z,21.00
2023-05-02T04:27:51.320Z,21.98
2023-05-02T04:32:07.731Z,19.98
2023-05-02T04:36:20.182Z,25.55
2023-05-02T04:40:34.162Z,28.67
2023-05-02T04:44:50.606Z,28.17
2023-05-02T04:49:03.203Z,31.75
2023-05-02T04:53:15.893Z,27.60
2023-05-02T04:57:28.424Z,22.38
2023-05-02T05:01:45.661Z,28.17
2023-05-02T05:05:58.238Z,24.98
2023-05-02T05:10:11.892Z,25.75
2023-05-02T05:14:31.725Z,23.30
2023-05-02T05:18:44.430Z,29.10
2023-05-02T05:22:59.568Z,18.10
2023-05-02T05:27:12.874Z,16.02
2023-05-02T05:31:25.608Z,11.45
2023-05-02T05:35:41.960Z,11.40
2023-05-02T05:39:54.955Z,9.35
2023-05-02T05:44:07.930Z,8.43
2023-05-02T05:48:20.991Z,19.05
2023-05-02T05:52:33.978Z,21.80
2023-05-02T05:56:48.846Z,18.40
2023-05-02T06:01:04.541Z,19.38
2023-05-02T06:05:17.783Z,23.45
2023-05-02T06:09:30.335Z,22.70
2023-05-02T06:13:43.069Z,23.55
2023-05-02T06:17:55.628Z,29.33
2023-05-02T06:22:08.032Z,21.58
2023-05-02T06:26:20.465Z,25.45
2023-05-02T06:30:33.126Z,21.13
2023-05-02T06:34:46.177Z,24.45
2023-05-02T06:39:00.856Z,20.90
2023-05-02T06:43:14.034Z,21.75
2023-05-02T06:47:26.740Z,26.65
2023-05-02T06:51:39.168Z,24.48
2023-05-02T06:55:55.283Z,23.25
2023-05-02T07:00:08.444Z,23.38
2023-05-02T07:04:23.614Z,18.00
2023-05-02T07:08:38.148Z,20.40
2023-05-02T07:12:50.549Z,20.38
2023-05-02T07:17:03.147Z,19.98
2023-05-02T07:21:15.689Z,26.38
2023-05-02T07:25:28.219Z,25.60
2023-05-02T07:29:42.767Z,28.50
2023-05-02T07:33:55.073Z,18.40
2023-05-02T07:38:07.518Z,21.85
2023-05-02T07:42:19.873Z,22.80
2023-05-02T07:46:32.296Z,29.83
2023-05-02T07:50:44.980Z,29.33
2023-05-02T07:54:57.344Z,42.13
2023-05-02T07:59:10.153Z,30.08
2023-05-02T08:03:24.336Z,30.08
2023-05-02T08:07:38.670Z,32.58
2023-05-02T08:11:51.161Z,21.83
2023-05-02T08:16:03.883Z,18.00
2023-05-02T08:20:16.557Z,16.98
2023-05-02T08:24:29.089Z,22.05
2023-05-02T08:28:41.525Z,19.88
2023-05-02T08:32:54.055Z,23.67
2023-05-02T08:37:10.605Z,18.02
2023-05-02T08:41:23.454Z,24.58
2023-05-02T08:45:40.498Z,20.92
2023-05-02T08:49:55.968Z,18.85
2023-05-02T08:54:10.423Z,19.20
2023-05-02T08:58:22.968Z,19.08
2023-05-02T09:02:51.318Z,19.77
2023-05-02T09:07:03.711Z,24.02
2023-05-02T09:11:17.750Z,13.77
2023-05-02T09:15:30.118Z,19.92
2023-05-02T09:19:42.597Z,14.50
2023-05-02T09:24:04.213Z,11.23
2023-05-02T09:28:16.778Z,6.75
2023-05-02T09:32:45.779Z,7.15
2023-05-02T09:36:58.623Z,4.50
2023-05-02T09:41:11.579Z,5.75
2023-05-02T09:45:27.484Z,7.63
2023-05-02T09:49:41.248Z,6.03
2023-05-02T09:53:53.733Z,6.72
2023-05-02T09:58:07.006Z,11.70
2023-05-02T10:02:22.059Z,4.85
2023-05-02T10:06:36.924Z,13.48
2023-05-02T10:10:55.134Z,11.68
2023-05-02T10:15:13.034Z,11.82
2023-05-02T10:19:30.328Z,14.23
2023-05-02T10:23:46.732Z,12.73
2023-05-02T10:28:00.133Z,17.17
2023-05-02T10:32:15.279Z,14.23
2023-05-02T10:36:28.860Z,12.88
2023-05-02T10:40:42.834Z,9.80
2023-05-02T10:44:55.164Z,9.95
2023-05-02T10:49:09.538Z,9.90
2023-05-02T10:53:37.970Z,9.90
2023-05-02T10:57:59.379Z,11.05
2023-05-02T11:02:24.414Z,12.80
2023-05-02T11:06:58.054Z,10.80
2023-05-02T11:11:42.793Z,14.45
2023-05-02T11:15:56.376Z,11.20
2023-05-02T11:20:09.001Z,14.25
2023-05-02T11:24:54.100Z,9.15
2023-05-02T11:29:06.458Z,11.57
2023-05-02T11:33:20.404Z,9.23
2023-05-02T11:37:33.659Z,10.95
2023-05-02T11:41:48.605Z,12.13
2023-05-02T11:46:02.710Z,13.75
2023-05-02T11:50:16.145Z,8.77
2023-05-02T11:54:29.452Z,4.68
2023-05-02T11:58:41.919Z,4.90
2023-05-02T12:02:54.552Z,14.73
2023-05-02T12:07:08.084Z,8.82
2023-05-02T12:11:21.850Z,6.97
2023-05-02T12:15:34.555Z,6.10
2023-05-02T12:19:46.953Z,7.10
2023-05-02T12:24:00.522Z,5.45
2023-05-02T12:28:13.037Z,4.35
2023-05-02T12:32:32.827Z,4.93
2023-05-02T12:36:45.693Z,6.45
2023-05-02T12:40:58.148Z,6.13
2023-05-02T12:45:19.696Z,10.25
2023-05-02T12:49:32.178Z,3.10
2023-05-02T12:53:46.204Z,4.07
2023-05-02T12:58:06.284Z,6.28
2023-05-02T13:02:18.720Z,18.67
2023-05-02T13:06:31.561Z,10.23
2023-05-02T13:10:44.291Z,3.97
2023-05-02T13:14:57.038Z,5.53
2023-05-02T13:19:09.794Z,5.53
2023-05-02T13:23:22.355Z,8.48
2023-05-02T13:27:34.836Z,5.88
2023-05-02T13:31:47.176Z,10.40
2023-05-02T13:35:59.682Z,5.18
2023-05-02T13:40:12.851Z,6.55
2023-05-02T13:44:25.292Z,7.15
2023-05-02T13:48:37.740Z,7.28
2023-05-02T13:52:50.907Z,5.10
2023-05-02T13:57:03.413Z,7.72
2023-05-02T14:01:16.129Z,5.30
2023-05-02T14:05:28.548Z,4.68
2023-05-02T14:09:41.002Z,8.30
2023-05-02T14:13:53.971Z,3.00
2023-05-02T14:18:06.582Z,8.23
2023-05-02T14:22:19.084Z,3.88
2023-05-02T14:26:31.888Z,4.35
2023-05-02T14:30:44.298Z,2.65
2023-05-02T14:34:56.691Z,2.88
2023-05-02T14:39:09.819Z,7.10
2023-05-02T14:43:22.261Z,3.10
2023-05-02T14:47:35.013Z,4.18
2023-05-02T14:51:47.919Z,3.53
2023-05-02T14:56:00.233Z,3.47
2023-05-02T15:00:13.289Z,5.93
2023-05-02T15:04:27.508Z,4.05
2023-05-02T15:08:40.910Z,4.57
2023-05-02T15:12:53.393Z,4.82
2023-05-02T15:17:05.926Z,2.95
2023-05-02T15:21:18.268Z,3.80
2023-05-02T15:25:31.221Z,2.78
2023-05-02T15:29:43.561Z,3.22
2023-05-02T15:33:56.013Z,3.15
2023-05-02T15:38:09.312Z,3.92
2023-05-02T15:42:21.771Z,4.38
2023-05-02T15:46:34.182Z,4.07
2023-05-02T15:50:47.462Z,4.32
2023-05-02T15:55:01.957Z,2.88
2023-05-02T15:59:14.370Z,4.85
2023-05-02T16:03:27.020Z,6.05
2023-05-02T16:07:39.614Z,5.53
2023-05-02T16:11:51.964Z,6.03
2023-05-02T16:16:04.796Z,4.78
2023-05-02T16:20:18.517Z,5.90
2023-05-02T16:24:34.373Z,5.32
2023-05-02T16:28:46.770Z,3.72
2023-05-02T16:32:59.740Z,5.63
2023-05-02T16:37:12.205Z,2.55
2023-05-02T16:41:24.575Z,3.85
2023-05-02T16:45:37.012Z,6.57
2023-05-02T16:49:54.074Z,4.25
2023-05-02T16:54:06.580Z,3.75
2023-05-02T16:58:19.470Z,2.88
2023-05-02T17:02:31.886Z,4.15
2023-05-02T17:06:44.536Z,3.92
2023-05-02T17:10:57.175Z,5.35
2023-05-02T17:15:10.025Z,4.93
2023-05-02T17:19:22.561Z,2.85
2023-05-02T17:23:35.058Z,2.80
2023-05-02T17:27:47.676Z,3.70
2023-05-02T17:32:02.835Z,3.47
2023-05-02T17:36:15.181Z,3.90
2023-05-02T17:40:30.736Z,4.13
2023-05-02T17:44:44.361Z,4.15
2023-05-02T17:48:56.994Z,3.83
2023-05-02T17:53:09.637Z,6.03
2023-05-02T17:57:22.251Z,3.83
2023-05-02T18:01:34.632Z,3.75
2023-05-02T18:05:48.038Z,4.28
2023-05-02T18:10:05.442Z,5.28
2023-05-02T18:14:19.534Z,3.30
2023-05-02T18:18:33.190Z,7.90
2023-05-02T18:22:47.907Z,7.85
2023-05-02T18:27:02.143Z,4.72
2023-05-02T18:31:18.115Z,4.50
2023-05-02T18:35:30.665Z,7.53
2023-05-02T18:39:45.447Z,8.80
2023-05-02T18:44:00.635Z,11.13
2023-05-02T18:48:13.504Z,6.18
2023-05-02T18:52:26.165Z,7.47
2023-05-02T18:56:38.581Z,4.13
2023-05-02T19:00:51.134Z,3.53
2023-05-02T19:05:07.726Z,5.57
2023-05-02T19:09:20.094Z,4.18
2023-05-02T19:13:32.871Z,5.00
2023-05-02T19:17:45.300Z,3.83
2023-05-02T19:21:57.772Z,6.13
2023-05-02T19:26:14.225Z,5.78
2023-05-02T19:30:26.584Z,6.75
2023-05-02T19:34:39.019Z,8.13
2023-05-02T19:38:54.081Z,7.35
2023-05-02T19:43:07.142Z,5.47
2023-05-02T19:47:19.706Z,12.45
2023-05-02T19:51:34.300Z,8.52
2023-05-02T19:55:47.407Z,12.02
2023-05-02T20:00:00.138Z,11.00
2023-05-02T20:04:12.683Z,16.10
2023-05-02T20:08:28.139Z,7.35
2023-05-02T20:12:44.996Z,10.23
2023-05-02T20:17:01.843Z,8.45
2023-05-02T20:21:14.609Z,9.57
2023-05-02T20:25:27.057Z,8.73
2023-05-02T20:29:39.628Z,5.13
2023-05-02T20:33:52.384Z,7.60
2023-05-02T20:38:05.400Z,4.45
2023-05-02T20:42:40.375Z,4.35
2023-05-02T20:47:14.806Z,3.45
2023-05-02T20:51:47.953Z,4.25
2023-05-02T20:56:00.358Z,5.05
2023-05-02T21:00:16.305Z,4.15
2023-05-02T21:04:28.685Z,6.90
2023-05-02T21:08:40.985Z,3.67
2023-05-02T21:12:53.526Z,5.25
2023-05-02T21:17:06.151Z,5.15
2023-05-02T21:21:18.522Z,5.03
2023-05-02T21:25:31.217Z,3.47
2023-05-02T21:29:43.631Z,3.35
2023-05-02T21:33:56.149Z,3.38
2023-05-02T21:38:08.664Z,4.50
2023-05-02T21:42:21.195Z,3.97
2023-05-02T21:46:33.696Z,3.63
2023-05-02T21:50:46.294Z,5.18
2023-05-02T21:54:58.788Z,3.33
2023-05-02T21:59:11.265Z,3.28
2023-05-02T22:03:23.959Z,4.00
2023-05-02T22:07:37.288Z,2.30
2023-05-02T22:11:49.767Z,3.85
2023-05-02T22:16:02.231Z,3.90
2023-05-02T22:20:14.984Z,2.55
2023-05-02T22:24:28.983Z,3.35
2023-05-02T22:28:41.478Z,3.70
2023-05-02T22:32:54.052Z,3.85
2023-05-02T22:37:06.674Z,5.00
2023-05-02T22:41:19.104Z,2.47
2023-05-02T22:45:31.531Z,2.65
2023-05-02T22:49:44.964Z,2.65
2023-05-02T22:53:57.721Z,3.08
2023-05-02T22:58:10.257Z,2.47
2023-05-02T23:02:23.437Z,3.55
2023-05-02T23:06:36.315Z,2.90
2023-05-02T23:10:48.678Z,2.83
2023-05-02T23:15:01.085Z,2.67
2023-05-02T23:19:13.459Z,3.38
2023-05-02T23:23:26.756Z,2.72
2023-05-02T23:27:39.117Z,2.63
2023-05-02T23:31:53.991Z,2.33
2023-05-02T23:36:07.492Z,4.38
2023-05-02T23:40:20.020Z,1.60
2023-05-02T23:44:32.501Z,2.55
2023-05-02T23:48:44.955Z,1.90
2023-05-02T23:52:57.420Z,1.65
2023-05-02T23:57:09.841Z,1.90
